sensor_id;sensor_type;location;lat;lon;timestamp;P1;durP1;ratioP1;P2;durP2;ratioP2
13404;SDS011;6773;51.192;7.024;2023-07-30T00:02:18;6.30;;;3.60;;
13404;SDS011;6773;51.192;7.024;2023-07-30T00:04:45;3.90;;;3.50;;
13404;SDS011;6773;51.192;7.024;2023-07-30T00:07:11;6.03;;;3.80;;
13404;SDS011;6773;51.192;7.024;2023-07-30T00:09:38;4.17;;;3.73;;
13404;SDS011;6773;51.192;7.024;2023-07-30T00:12:04;3.65;;;3.10;;
13404;SDS011;6773;51.192;7.024;2023-07-30T00:14:30;4.15;;;3.35;;
13404;SDS011;6773;51.192;7.024;2023-07-30T00:16:56;8.13;;;3.80;;
13404;SDS011;6773;51.192;7.024;2023-07-30T00:19:22;6.03;;;3.20;;
13404;SDS011;6773;51.192;7.024;2023-07-30T00:21:48;3.97;;;3.35;;
13404;SDS011;6773;51.192;7.024;2023-07-30T00:24:14;6.00;;;3.75;;
13404;SDS011;6773;51.192;7.024;2023-07-30T00:26:39;4.57;;;3.33;;
13404;SDS011;6773;51.192;7.024;2023-07-30T00:29:05;5.17;;;3.27;;
13404;SDS011;6773;51.192;7.024;2023-07-30T00:31:31;8.40;;;3.60;;
13404;SDS011;6773;51.192;7.024;2023-07-30T00:33:57;5.50;;;2.90;;
13404;SDS011;6773;51.192;7.024;2023-07-30T00:36:23;4.10;;;3.17;;
13404;SDS011;6773;51.192;7.024;2023-07-30T00:38:49;5.43;;;3.33;;
13404;SDS011;6773;51.192;7.024;2023-07-30T00:41:15;7.30;;;3.40;;
13404;SDS011;6773;51.192;7.024;2023-07-30T00:43:41;8.87;;;3.73;;
13404;SDS011;6773;51.192;7.024;2023-07-30T00:46:07;4.87;;;3.07;;
13404;SDS011;6773;51.192;7.024;2023-07-30T00:48:34;4.10;;;3.30;;
13404;SDS011;6773;51.192;7.024;2023-07-30T00:51:00;3.63;;;3.33;;
13404;SDS011;6773;51.192;7.024;2023-07-30T00:53:26;4.77;;;3.57;;
13404;SDS011;6773;51.192;7.024;2023-07-30T00:55:53;5.63;;;3.57;;
13404;SDS011;6773;51.192;7.024;2023-07-30T00:58:20;5.53;;;3.70;;
13404;SDS011;6773;51.192;7.024;2023-07-30T01:00:46;6.30;;;3.88;;
13404;SDS011;6773;51.192;7.024;2023-07-30T01:03:12;4.65;;;3.30;;
13404;SDS011;6773;51.192;7.024;2023-07-30T01:05:38;6.37;;;3.70;;
13404;SDS011;6773;51.192;7.024;2023-07-30T01:08:04;5.37;;;3.70;;
13404;SDS011;6773;51.192;7.024;2023-07-30T01:10:30;5.83;;;3.63;;
13404;SDS011;6773;51.192;7.024;2023-07-30T01:12:58;5.75;;;3.90;;
13404;SDS011;6773;51.192;7.024;2023-07-30T01:15:26;5.95;;;3.80;;
13404;SDS011;6773;51.192;7.024;2023-07-30T01:17:52;4.00;;;3.30;;
13404;SDS011;6773;51.192;7.024;2023-07-30T01:20:19;5.60;;;3.92;;
13404;SDS011;6773;51.192;7.024;2023-07-30T01:22:46;6.03;;;3.60;;
13404;SDS011;6773;51.192;7.024;2023-07-30T01:25:12;5.87;;;3.30;;
13404;SDS011;6773;51.192;7.024;2023-07-30T01:27:39;6.43;;;3.40;;
13404;SDS011;6773;51.192;7.024;2023-07-30T01:30:22;5.22;;;3.17;;
13404;SDS011;6773;51.192;7.024;2023-07-30T01:32:51;8.60;;;3.30;;
13404;SDS011;6773;51.192;7.024;2023-07-30T01:35:20;5.30;;;3.35;;
13404;SDS011;6773;51.192;7.024;2023-07-30T01:37:47;8.00;;;3.53;;
13404;SDS011;6773;51.192;7.024;2023-07-30T01:40:14;5.37;;;3.00;;
13404;SDS011;6773;51.192;7.024;2023-07-30T01:42:40;5.57;;;3.20;;
13404;SDS011;6773;51.192;7.024;2023-07-30T01:45:06;5.22;;;3.55;;
13404;SDS011;6773;51.192;7.024;2023-07-30T01:47:32;7.53;;;3.83;;
13404;SDS011;6773;51.192;7.024;2023-07-30T01:49:57;8.00;;;3.30;;
13404;SDS011;6773;51.192;7.024;2023-07-30T01:52:23;6.63;;;3.10;;
13404;SDS011;6773;51.192;7.024;2023-07-30T01:54:49;8.40;;;3.37;;
13404;SDS011;6773;51.192;7.024;2023-07-30T01:57:15;5.77;;;3.50;;
13404;SDS011;6773;51.192;7.024;2023-07-30T01:59:41;9.20;;;3.40;;
13404;SDS011;6773;51.192;7.024;2023-07-30T02:02:07;10.10;;;3.53;;
13404;SDS011;6773;51.192;7.024;2023-07-30T02:04:33;4.73;;;3.07;;
13404;SDS011;6773;51.192;7.024;2023-07-30T02:06:59;5.03;;;3.03;;
13404;SDS011;6773;51.192;7.024;2023-07-30T02:09:25;6.63;;;3.10;;
13404;SDS011;6773;51.192;7.024;2023-07-30T02:11:51;6.63;;;3.07;;
13404;SDS011;6773;51.192;7.024;2023-07-30T02:14:17;4.70;;;3.23;;
13404;SDS011;6773;51.192;7.024;2023-07-30T02:16:43;3.83;;;3.30;;
13404;SDS011;6773;51.192;7.024;2023-07-30T02:19:09;8.77;;;3.50;;
13404;SDS011;6773;51.192;7.024;2023-07-30T02:21:35;6.63;;;3.27;;
13404;SDS011;6773;51.192;7.024;2023-07-30T02:24:04;6.57;;;3.23;;
13404;SDS011;6773;51.192;7.024;2023-07-30T02:26:34;4.33;;;2.90;;
13404;SDS011;6773;51.192;7.024;2023-07-30T02:29:00;4.53;;;3.13;;
13404;SDS011;6773;51.192;7.024;2023-07-30T02:31:26;5.23;;;3.43;;
13404;SDS011;6773;51.192;7.024;2023-07-30T02:33:52;5.80;;;3.47;;
13404;SDS011;6773;51.192;7.024;2023-07-30T02:36:18;6.63;;;3.73;;
13404;SDS011;6773;51.192;7.024;2023-07-30T02:38:43;6.47;;;3.00;;
13404;SDS011;6773;51.192;7.024;2023-07-30T02:41:09;5.60;;;3.20;;
13404;SDS011;6773;51.192;7.024;2023-07-30T02:43:35;8.90;;;4.80;;
13404;SDS011;6773;51.192;7.024;2023-07-30T02:46:01;5.13;;;3.07;;
13404;SDS011;6773;51.192;7.024;2023-07-30T02:48:27;4.27;;;3.10;;
13404;SDS011;6773;51.192;7.024;2023-07-30T02:50:53;8.47;;;3.53;;
13404;SDS011;6773;51.192;7.024;2023-07-30T02:53:19;7.00;;;3.60;;
13404;SDS011;6773;51.192;7.024;2023-07-30T02:55:45;3.87;;;3.00;;
13404;SDS011;6773;51.192;7.024;2023-07-30T02:58:11;5.67;;;3.13;;
13404;SDS011;6773;51.192;7.024;2023-07-30T03:00:37;7.13;;;3.20;;
13404;SDS011;6773;51.192;7.024;2023-07-30T03:03:02;5.50;;;2.90;;
13404;SDS011;6773;51.192;7.024;2023-07-30T03:05:28;4.90;;;3.23;;
13404;SDS011;6773;51.192;7.024;2023-07-30T03:07:54;9.27;;;3.90;;
13404;SDS011;6773;51.192;7.024;2023-07-30T03:10:20;6.20;;;3.13;;
13404;SDS011;6773;51.192;7.024;2023-07-30T03:12:46;5.37;;;3.30;;
13404;SDS011;6773;51.192;7.024;2023-07-30T03:15:12;4.00;;;3.27;;
13404;SDS011;6773;51.192;7.024;2023-07-30T03:17:38;7.10;;;2.90;;
13404;SDS011;6773;51.192;7.024;2023-07-30T03:20:04;6.87;;;3.37;;
13404;SDS011;6773;51.192;7.024;2023-07-30T03:22:31;6.87;;;3.87;;
13404;SDS011;6773;51.192;7.024;2023-07-30T03:24:56;6.27;;;3.43;;
13404;SDS011;6773;51.192;7.024;2023-07-30T03:27:22;5.97;;;3.80;;
13404;SDS011;6773;51.192;7.024;2023-07-30T03:29:48;13.17;;;3.20;;
13404;SDS011;6773;51.192;7.024;2023-07-30T03:32:14;7.17;;;3.67;;
13404;SDS011;6773;51.192;7.024;2023-07-30T03:34:40;6.97;;;3.53;;
13404;SDS011;6773;51.192;7.024;2023-07-30T03:37:06;7.50;;;3.40;;
13404;SDS011;6773;51.192;7.024;2023-07-30T03:39:32;6.03;;;3.30;;
13404;SDS011;6773;51.192;7.024;2023-07-30T03:41:58;7.47;;;3.20;;
13404;SDS011;6773;51.192;7.024;2023-07-30T03:44:24;7.33;;;3.17;;
13404;SDS011;6773;51.192;7.024;2023-07-30T03:46:50;5.53;;;3.47;;
13404;SDS011;6773;51.192;7.024;2023-07-30T03:49:16;8.17;;;3.17;;
13404;SDS011;6773;51.192;7.024;2023-07-30T03:51:42;4.80;;;3.17;;
13404;SDS011;6773;51.192;7.024;2023-07-30T03:54:08;6.87;;;2.93;;
13404;SDS011;6773;51.192;7.024;2023-07-30T03:56:34;5.03;;;2.80;;
13404;SDS011;6773;51.192;7.024;2023-07-30T03:59:00;8.77;;;3.23;;
13404;SDS011;6773;51.192;7.024;2023-07-30T04:01:26;6.13;;;3.67;;
13404;SDS011;6773;51.192;7.024;2023-07-30T04:03:52;5.33;;;3.30;;
13404;SDS011;6773;51.192;7.024;2023-07-30T04:06:18;7.63;;;3.37;;
13404;SDS011;6773;51.192;7.024;2023-07-30T04:08:44;10.63;;;3.27;;
13404;SDS011;6773;51.192;7.024;2023-07-30T04:11:09;6.00;;;3.43;;
13404;SDS011;6773;51.192;7.024;2023-07-30T04:13:35;5.13;;;2.93;;
13404;SDS011;6773;51.192;7.024;2023-07-30T04:16:01;7.47;;;3.70;;
13404;SDS011;6773;51.192;7.024;2023-07-30T04:18:27;7.20;;;2.80;;
13404;SDS011;6773;51.192;7.024;2023-07-30T04:20:56;6.03;;;2.90;;
13404;SDS011;6773;51.192;7.024;2023-07-30T04:23:22;6.67;;;3.20;;
13404;SDS011;6773;51.192;7.024;2023-07-30T04:25:51;6.23;;;3.23;;
13404;SDS011;6773;51.192;7.024;2023-07-30T04:28:17;6.80;;;2.90;;
13404;SDS011;6773;51.192;7.024;2023-07-30T04:30:43;5.57;;;2.60;;
13404;SDS011;6773;51.192;7.024;2023-07-30T04:33:09;8.13;;;3.43;;
13404;SDS011;6773;51.192;7.024;2023-07-30T04:35:35;5.53;;;3.00;;
13404;SDS011;6773;51.192;7.024;2023-07-30T04:38:01;10.33;;;2.87;;
13404;SDS011;6773;51.192;7.024;2023-07-30T04:40:27;5.37;;;3.20;;
13404;SDS011;6773;51.192;7.024;2023-07-30T04:42:53;5.00;;;2.77;;
13404;SDS011;6773;51.192;7.024;2023-07-30T04:45:19;7.43;;;3.50;;
13404;SDS011;6773;51.192;7.024;2023-07-30T04:47:45;6.07;;;2.97;;
13404;SDS011;6773;51.192;7.024;2023-07-30T04:50:11;6.67;;;2.80;;
13404;SDS011;6773;51.192;7.024;2023-07-30T04:52:37;7.17;;;2.40;;
13404;SDS011;6773;51.192;7.024;2023-07-30T04:55:04;5.73;;;2.63;;
13404;SDS011;6773;51.192;7.024;2023-07-30T04:57:30;2.50;;;2.30;;
13404;SDS011;6773;51.192;7.024;2023-07-30T04:59:56;5.10;;;2.53;;
13404;SDS011;6773;51.192;7.024;2023-07-30T05:02:22;5.40;;;2.40;;
13404;SDS011;6773;51.192;7.024;2023-07-30T05:04:48;5.07;;;2.40;;
13404;SDS011;6773;51.192;7.024;2023-07-30T05:07:14;7.20;;;2.33;;
13404;SDS011;6773;51.192;7.024;2023-07-30T05:09:39;6.13;;;2.10;;
13404;SDS011;6773;51.192;7.024;2023-07-30T05:12:06;5.77;;;2.67;;
13404;SDS011;6773;51.192;7.024;2023-07-30T05:14:32;4.03;;;2.40;;
13404;SDS011;6773;51.192;7.024;2023-07-30T05:16:58;6.43;;;2.30;;
13404;SDS011;6773;51.192;7.024;2023-07-30T05:19:23;7.80;;;2.90;;
13404;SDS011;6773;51.192;7.024;2023-07-30T05:21:49;7.13;;;2.87;;
13404;SDS011;6773;51.192;7.024;2023-07-30T05:24:15;6.30;;;2.23;;
13404;SDS011;6773;51.192;7.024;2023-07-30T05:26:41;6.83;;;2.47;;
13404;SDS011;6773;51.192;7.024;2023-07-30T05:29:06;4.33;;;2.30;;
13404;SDS011;6773;51.192;7.024;2023-07-30T05:31:32;5.27;;;2.23;;
13404;SDS011;6773;51.192;7.024;2023-07-30T05:33:58;5.13;;;2.67;;
13404;SDS011;6773;51.192;7.024;2023-07-30T05:36:24;7.63;;;2.70;;
13404;SDS011;6773;51.192;7.024;2023-07-30T05:38:50;3.70;;;2.17;;
13404;SDS011;6773;51.192;7.024;2023-07-30T05:41:16;6.83;;;2.50;;
13404;SDS011;6773;51.192;7.024;2023-07-30T05:43:42;6.47;;;2.43;;
13404;SDS011;6773;51.192;7.024;2023-07-30T05:46:08;8.70;;;2.30;;
13404;SDS011;6773;51.192;7.024;2023-07-30T05:48:34;7.43;;;2.40;;
13404;SDS011;6773;51.192;7.024;2023-07-30T05:51:00;5.23;;;2.23;;
13404;SDS011;6773;51.192;7.024;2023-07-30T05:53:26;6.13;;;2.40;;
13404;SDS011;6773;51.192;7.024;2023-07-30T05:55:52;6.03;;;2.20;;
13404;SDS011;6773;51.192;7.024;2023-07-30T05:58:18;7.73;;;2.70;;
13404;SDS011;6773;51.192;7.024;2023-07-30T06:00:44;7.03;;;2.37;;
13404;SDS011;6773;51.192;7.024;2023-07-30T06:03:10;4.07;;;2.50;;
13404;SDS011;6773;51.192;7.024;2023-07-30T06:05:42;4.00;;;2.10;;
13404;SDS011;6773;51.192;7.024;2023-07-30T06:08:09;5.67;;;2.30;;
13404;SDS011;6773;51.192;7.024;2023-07-30T06:10:35;5.27;;;2.20;;
13404;SDS011;6773;51.192;7.024;2023-07-30T06:13:02;5.67;;;2.20;;
13404;SDS011;6773;51.192;7.024;2023-07-30T06:15:28;6.60;;;2.60;;
13404;SDS011;6773;51.192;7.024;2023-07-30T06:17:54;5.87;;;2.43;;
13404;SDS011;6773;51.192;7.024;2023-07-30T06:20:20;9.97;;;3.07;;
13404;SDS011;6773;51.192;7.024;2023-07-30T06:22:46;7.27;;;2.17;;
13404;SDS011;6773;51.192;7.024;2023-07-30T06:25:12;13.37;;;2.90;;
13404;SDS011;6773;51.192;7.024;2023-07-30T06:27:38;5.67;;;2.83;;
13404;SDS011;6773;51.192;7.024;2023-07-30T06:30:04;4.77;;;2.33;;
13404;SDS011;6773;51.192;7.024;2023-07-30T06:32:30;7.30;;;2.90;;
13404;SDS011;6773;51.192;7.024;2023-07-30T06:34:56;6.20;;;2.10;;
13404;SDS011;6773;51.192;7.024;2023-07-30T06:37:21;7.37;;;2.30;;
13404;SDS011;6773;51.192;7.024;2023-07-30T06:39:47;7.97;;;1.97;;
13404;SDS011;6773;51.192;7.024;2023-07-30T06:42:13;5.30;;;2.13;;
13404;SDS011;6773;51.192;7.024;2023-07-30T06:44:39;10.10;;;2.30;;
13404;SDS011;6773;51.192;7.024;2023-07-30T06:47:05;6.37;;;2.40;;
13404;SDS011;6773;51.192;7.024;2023-07-30T06:49:31;10.43;;;2.20;;
13404;SDS011;6773;51.192;7.024;2023-07-30T06:51:59;6.97;;;2.30;;
13404;SDS011;6773;51.192;7.024;2023-07-30T06:54:25;5.57;;;2.50;;
13404;SDS011;6773;51.192;7.024;2023-07-30T06:56:51;4.57;;;1.87;;
13404;SDS011;6773;51.192;7.024;2023-07-30T06:59:17;4.90;;;1.83;;
13404;SDS011;6773;51.192;7.024;2023-07-30T07:01:42;4.13;;;2.50;;
13404;SDS011;6773;51.192;7.024;2023-07-30T07:04:08;9.40;;;2.87;;
13404;SDS011;6773;51.192;7.024;2023-07-30T07:06:34;6.77;;;2.70;;
13404;SDS011;6773;51.192;7.024;2023-07-30T07:09:00;5.63;;;2.20;;
13404;SDS011;6773;51.192;7.024;2023-07-30T07:11:26;6.43;;;2.37;;
13404;SDS011;6773;51.192;7.024;2023-07-30T07:13:52;8.60;;;2.40;;
13404;SDS011;6773;51.192;7.024;2023-07-30T07:16:18;6.37;;;2.20;;
13404;SDS011;6773;51.192;7.024;2023-07-30T07:18:44;5.17;;;2.20;;
13404;SDS011;6773;51.192;7.024;2023-07-30T07:21:10;8.10;;;2.63;;
13404;SDS011;6773;51.192;7.024;2023-07-30T07:23:36;6.23;;;2.30;;
13404;SDS011;6773;51.192;7.024;2023-07-30T07:26:02;4.83;;;2.20;;
13404;SDS011;6773;51.192;7.024;2023-07-30T07:28:29;7.33;;;2.50;;
13404;SDS011;6773;51.192;7.024;2023-07-30T07:30:55;5.97;;;2.43;;
13404;SDS011;6773;51.192;7.024;2023-07-30T07:33:21;7.90;;;2.60;;
13404;SDS011;6773;51.192;7.024;2023-07-30T07:35:47;7.97;;;2.70;;
13404;SDS011;6773;51.192;7.024;2023-07-30T07:38:13;4.93;;;2.33;;
13404;SDS011;6773;51.192;7.024;2023-07-30T07:40:39;9.17;;;2.60;;
13404;SDS011;6773;51.192;7.024;2023-07-30T07:43:06;8.47;;;2.70;;
13404;SDS011;6773;51.192;7.024;2023-07-30T07:45:32;6.47;;;2.47;;
13404;SDS011;6773;51.192;7.024;2023-07-30T07:47:57;6.87;;;2.70;;
13404;SDS011;6773;51.192;7.024;2023-07-30T07:50:23;8.43;;;2.73;;
13404;SDS011;6773;51.192;7.024;2023-07-30T07:52:49;9.50;;;2.70;;
13404;SDS011;6773;51.192;7.024;2023-07-30T07:55:15;7.20;;;2.70;;
13404;SDS011;6773;51.192;7.024;2023-07-30T07:57:41;7.13;;;2.57;;
13404;SDS011;6773;51.192;7.024;2023-07-30T08:00:07;6.23;;;2.60;;
13404;SDS011;6773;51.192;7.024;2023-07-30T08:02:33;7.43;;;2.73;;
13404;SDS011;6773;51.192;7.024;2023-07-30T08:04:59;12.27;;;3.40;;
13404;SDS011;6773;51.192;7.024;2023-07-30T08:07:25;13.00;;;3.03;;
13404;SDS011;6773;51.192;7.024;2023-07-30T08:09:51;8.20;;;2.67;;
13404;SDS011;6773;51.192;7.024;2023-07-30T08:12:18;8.57;;;3.30;;
13404;SDS011;6773;51.192;7.024;2023-07-30T08:14:44;7.90;;;3.17;;
13404;SDS011;6773;51.192;7.024;2023-07-30T08:17:10;9.27;;;2.80;;
13404;SDS011;6773;51.192;7.024;2023-07-30T08:19:36;5.33;;;2.80;;
13404;SDS011;6773;51.192;7.024;2023-07-30T08:22:03;11.03;;;3.03;;
13404;SDS011;6773;51.192;7.024;2023-07-30T08:24:29;10.20;;;3.77;;
13404;SDS011;6773;51.192;7.024;2023-07-30T08:26:55;8.80;;;3.17;;
13404;SDS011;6773;51.192;7.024;2023-07-30T08:29:21;4.27;;;2.50;;
13404;SDS011;6773;51.192;7.024;2023-07-30T08:31:47;9.97;;;3.13;;
13404;SDS011;6773;51.192;7.024;2023-07-30T08:34:13;9.43;;;3.00;;
13404;SDS011;6773;51.192;7.024;2023-07-30T08:36:39;4.40;;;2.80;;
13404;SDS011;6773;51.192;7.024;2023-07-30T08:39:05;9.37;;;3.20;;
13404;SDS011;6773;51.192;7.024;2023-07-30T08:41:30;8.23;;;3.30;;
13404;SDS011;6773;51.192;7.024;2023-07-30T08:43:57;10.00;;;3.20;;
13404;SDS011;6773;51.192;7.024;2023-07-30T08:46:22;11.33;;;3.83;;
13404;SDS011;6773;51.192;7.024;2023-07-30T08:48:48;8.30;;;2.83;;
13404;SDS011;6773;51.192;7.024;2023-07-30T08:51:14;6.60;;;2.73;;
13404;SDS011;6773;51.192;7.024;2023-07-30T08:53:40;5.07;;;2.70;;
13404;SDS011;6773;51.192;7.024;2023-07-30T08:56:07;8.43;;;3.45;;
13404;SDS011;6773;51.192;7.024;2023-07-30T08:58:34;8.25;;;2.78;;
13404;SDS011;6773;51.192;7.024;2023-07-30T09:01:01;10.38;;;3.10;;
13404;SDS011;6773;51.192;7.024;2023-07-30T09:03:30;7.20;;;2.67;;
13404;SDS011;6773;51.192;7.024;2023-07-30T09:05:59;7.82;;;3.22;;
13404;SDS011;6773;51.192;7.024;2023-07-30T09:08:25;7.22;;;2.90;;
13404;SDS011;6773;51.192;7.024;2023-07-30T09:10:51;6.47;;;3.30;;
13404;SDS011;6773;51.192;7.024;2023-07-30T09:13:20;7.60;;;3.40;;
13404;SDS011;6773;51.192;7.024;2023-07-30T09:15:48;11.30;;;3.33;;
13404;SDS011;6773;51.192;7.024;2023-07-30T09:18:16;7.07;;;3.03;;
13404;SDS011;6773;51.192;7.024;2023-07-30T09:20:43;9.85;;;3.28;;
13404;SDS011;6773;51.192;7.024;2023-07-30T09:23:11;5.97;;;2.70;;
13404;SDS011;6773;51.192;7.024;2023-07-30T09:25:37;8.60;;;2.80;;
13404;SDS011;6773;51.192;7.024;2023-07-30T09:28:04;11.23;;;3.10;;
13404;SDS011;6773;51.192;7.024;2023-07-30T09:30:31;8.45;;;3.13;;
13404;SDS011;6773;51.192;7.024;2023-07-30T09:32:58;8.27;;;2.40;;
13404;SDS011;6773;51.192;7.024;2023-07-30T09:35:25;6.80;;;2.83;;
13404;SDS011;6773;51.192;7.024;2023-07-30T09:38:01;7.63;;;3.67;;
13404;SDS011;6773;51.192;7.024;2023-07-30T09:40:31;6.47;;;2.22;;
13404;SDS011;6773;51.192;7.024;2023-07-30T09:42:58;6.95;;;2.00;;
13404;SDS011;6773;51.192;7.024;2023-07-30T09:45:24;7.00;;;2.58;;
13404;SDS011;6773;51.192;7.024;2023-07-30T09:47:52;7.32;;;2.40;;
13404;SDS011;6773;51.192;7.024;2023-07-30T09:50:19;10.18;;;2.25;;
13404;SDS011;6773;51.192;7.024;2023-07-30T09:52:45;6.95;;;2.40;;
13404;SDS011;6773;51.192;7.024;2023-07-30T09:55:11;9.70;;;2.22;;
13404;SDS011;6773;51.192;7.024;2023-07-30T09:57:38;5.65;;;2.42;;
13404;SDS011;6773;51.192;7.024;2023-07-30T10:00:04;7.93;;;2.35;;
13404;SDS011;6773;51.192;7.024;2023-07-30T10:02:31;9.07;;;2.42;;
13404;SDS011;6773;51.192;7.024;2023-07-30T10:05:01;7.50;;;2.30;;
13404;SDS011;6773;51.192;7.024;2023-07-30T10:07:29;7.18;;;2.40;;
13404;SDS011;6773;51.192;7.024;2023-07-30T10:09:56;8.30;;;2.53;;
13404;SDS011;6773;51.192;7.024;2023-07-30T10:12:24;6.57;;;2.10;;
13404;SDS011;6773;51.192;7.024;2023-07-30T10:14:52;8.82;;;2.53;;
13404;SDS011;6773;51.192;7.024;2023-07-30T10:17:18;5.13;;;2.40;;
13404;SDS011;6773;51.192;7.024;2023-07-30T10:19:47;4.38;;;2.03;;
13404;SDS011;6773;51.192;7.024;2023-07-30T10:24:40;7.68;;;2.40;;
13404;SDS011;6773;51.192;7.024;2023-07-30T10:27:06;5.63;;;2.00;;
13404;SDS011;6773;51.192;7.024;2023-07-30T10:29:34;6.55;;;1.80;;
13404;SDS011;6773;51.192;7.024;2023-07-30T10:32:06;2.95;;;1.70;;
13404;SDS011;6773;51.192;7.024;2023-07-30T10:34:45;7.72;;;2.20;;
13404;SDS011;6773;51.192;7.024;2023-07-30T10:37:14;4.55;;;1.67;;
13404;SDS011;6773;51.192;7.024;2023-07-30T10:39:43;5.07;;;2.15;;
13404;SDS011;6773;51.192;7.024;2023-07-30T10:42:08;7.30;;;2.03;;
13404;SDS011;6773;51.192;7.024;2023-07-30T10:44:35;3.65;;;1.77;;
13404;SDS011;6773;51.192;7.024;2023-07-30T10:47:01;4.03;;;1.83;;
13404;SDS011;6773;51.192;7.024;2023-07-30T10:49:28;5.72;;;2.28;;
13404;SDS011;6773;51.192;7.024;2023-07-30T10:51:55;6.18;;;2.30;;
13404;SDS011;6773;51.192;7.024;2023-07-30T10:54:22;4.75;;;2.17;;
13404;SDS011;6773;51.192;7.024;2023-07-30T10:56:49;4.13;;;2.05;;
13404;SDS011;6773;51.192;7.024;2023-07-30T10:59:15;4.10;;;1.80;;
13404;SDS011;6773;51.192;7.024;2023-07-30T11:01:42;6.80;;;2.05;;
13404;SDS011;6773;51.192;7.024;2023-07-30T11:04:10;3.92;;;2.13;;
13404;SDS011;6773;51.192;7.024;2023-07-30T11:06:36;6.40;;;2.25;;
13404;SDS011;6773;51.192;7.024;2023-07-30T11:09:03;6.00;;;1.95;;
13404;SDS011;6773;51.192;7.024;2023-07-30T11:11:29;3.22;;;1.73;;
13404;SDS011;6773;51.192;7.024;2023-07-30T11:13:55;5.85;;;2.03;;
13404;SDS011;6773;51.192;7.024;2023-07-30T11:16:21;5.90;;;2.30;;
13404;SDS011;6773;51.192;7.024;2023-07-30T11:18:47;5.78;;;1.90;;
13404;SDS011;6773;51.192;7.024;2023-07-30T11:21:13;3.92;;;1.75;;
13404;SDS011;6773;51.192;7.024;2023-07-30T11:23:41;6.63;;;2.00;;
13404;SDS011;6773;51.192;7.024;2023-07-30T11:26:08;4.07;;;2.03;;
13404;SDS011;6773;51.192;7.024;2023-07-30T11:31:01;4.85;;;2.10;;
13404;SDS011;6773;51.192;7.024;2023-07-30T11:33:29;5.63;;;2.03;;
13404;SDS011;6773;51.192;7.024;2023-07-30T11:35:56;3.95;;;1.75;;
13404;SDS011;6773;51.192;7.024;2023-07-30T11:38:25;3.17;;;1.70;;
13404;SDS011;6773;51.192;7.024;2023-07-30T11:40:52;3.65;;;1.70;;
13404;SDS011;6773;51.192;7.024;2023-07-30T11:43:18;4.13;;;1.73;;
13404;SDS011;6773;51.192;7.024;2023-07-30T11:45:44;8.43;;;1.98;;
13404;SDS011;6773;51.192;7.024;2023-07-30T11:48:10;4.75;;;1.40;;
13404;SDS011;6773;51.192;7.024;2023-07-30T11:50:46;4.28;;;2.13;;
13404;SDS011;6773;51.192;7.024;2023-07-30T11:53:13;5.53;;;1.60;;
13404;SDS011;6773;51.192;7.024;2023-07-30T11:55:39;4.55;;;1.65;;
13404;SDS011;6773;51.192;7.024;2023-07-30T11:58:06;4.10;;;1.85;;
13404;SDS011;6773;51.192;7.024;2023-07-30T12:00:33;6.22;;;1.88;;
13404;SDS011;6773;51.192;7.024;2023-07-30T12:03:01;6.53;;;1.60;;
13404;SDS011;6773;51.192;7.024;2023-07-30T12:05:36;3.22;;;1.65;;
13404;SDS011;6773;51.192;7.024;2023-07-30T12:08:03;5.47;;;2.08;;
13404;SDS011;6773;51.192;7.024;2023-07-30T12:10:42;3.47;;;1.55;;
13404;SDS011;6773;51.192;7.024;2023-07-30T12:13:15;5.93;;;1.70;;
13404;SDS011;6773;51.192;7.024;2023-07-30T12:15:51;6.43;;;1.90;;
13404;SDS011;6773;51.192;7.024;2023-07-30T12:18:18;10.68;;;2.08;;
13404;SDS011;6773;51.192;7.024;2023-07-30T12:20:44;2.88;;;1.33;;
13404;SDS011;6773;51.192;7.024;2023-07-30T12:23:10;3.45;;;1.30;;
13404;SDS011;6773;51.192;7.024;2023-07-30T12:25:37;4.57;;;1.85;;
13404;SDS011;6773;51.192;7.024;2023-07-30T12:28:04;5.57;;;1.65;;
13404;SDS011;6773;51.192;7.024;2023-07-30T12:30:30;5.72;;;1.77;;
13404;SDS011;6773;51.192;7.024;2023-07-30T12:32:56;6.38;;;1.70;;
13404;SDS011;6773;51.192;7.024;2023-07-30T12:35:23;3.67;;;1.70;;
13404;SDS011;6773;51.192;7.024;2023-07-30T12:37:49;3.80;;;1.60;;
13404;SDS011;6773;51.192;7.024;2023-07-30T12:40:15;4.13;;;1.77;;
13404;SDS011;6773;51.192;7.024;2023-07-30T12:42:42;3.63;;;1.60;;
13404;SDS011;6773;51.192;7.024;2023-07-30T12:45:08;3.53;;;1.45;;
13404;SDS011;6773;51.192;7.024;2023-07-30T12:47:34;4.85;;;1.50;;
13404;SDS011;6773;51.192;7.024;2023-07-30T12:50:01;5.60;;;1.52;;
13404;SDS011;6773;51.192;7.024;2023-07-30T12:52:27;2.70;;;1.48;;
13404;SDS011;6773;51.192;7.024;2023-07-30T12:54:53;3.08;;;1.50;;
13404;SDS011;6773;51.192;7.024;2023-07-30T12:57:19;3.20;;;1.33;;
13404;SDS011;6773;51.192;7.024;2023-07-30T12:59:45;4.10;;;1.40;;
13404;SDS011;6773;51.192;7.024;2023-07-30T13:02:11;1.70;;;1.10;;
13404;SDS011;6773;51.192;7.024;2023-07-30T13:04:37;2.75;;;1.73;;
13404;SDS011;6773;51.192;7.024;2023-07-30T13:07:03;4.28;;;1.52;;
13404;SDS011;6773;51.192;7.024;2023-07-30T13:09:30;1.73;;;1.45;;
13404;SDS011;6773;51.192;7.024;2023-07-30T13:11:56;3.80;;;1.45;;
13404;SDS011;6773;51.192;7.024;2023-07-30T13:14:22;3.80;;;1.73;;
13404;SDS011;6773;51.192;7.024;2023-07-30T13:16:48;3.85;;;1.70;;
13404;SDS011;6773;51.192;7.024;2023-07-30T13:19:14;2.50;;;1.50;;
13404;SDS011;6773;51.192;7.024;2023-07-30T13:21:40;2.50;;;1.77;;
13404;SDS011;6773;51.192;7.024;2023-07-30T13:24:06;4.75;;;2.08;;
13404;SDS011;6773;51.192;7.024;2023-07-30T13:26:32;3.35;;;1.73;;
13404;SDS011;6773;51.192;7.024;2023-07-30T13:28:58;3.85;;;1.92;;
13404;SDS011;6773;51.192;7.024;2023-07-30T13:31:24;4.38;;;1.42;;
13404;SDS011;6773;51.192;7.024;2023-07-30T13:33:50;7.68;;;1.98;;
13404;SDS011;6773;51.192;7.024;2023-07-30T13:36:17;5.30;;;2.25;;
13404;SDS011;6773;51.192;7.024;2023-07-30T13:38:42;2.85;;;1.48;;
13404;SDS011;6773;51.192;7.024;2023-07-30T13:41:08;4.38;;;1.75;;
13404;SDS011;6773;51.192;7.024;2023-07-30T13:43:34;3.65;;;1.70;;
13404;SDS011;6773;51.192;7.024;2023-07-30T13:46:01;3.30;;;1.50;;
13404;SDS011;6773;51.192;7.024;2023-07-30T13:48:27;5.80;;;2.10;;
13404;SDS011;6773;51.192;7.024;2023-07-30T13:50:53;5.65;;;1.80;;
13404;SDS011;6773;51.192;7.024;2023-07-30T13:53:19;3.80;;;1.60;;
13404;SDS011;6773;51.192;7.024;2023-07-30T13:55:45;4.78;;;1.55;;
13404;SDS011;6773;51.192;7.024;2023-07-30T13:58:11;6.03;;;1.70;;
13404;SDS011;6773;51.192;7.024;2023-07-30T14:00:39;4.90;;;1.67;;
13404;SDS011;6773;51.192;7.024;2023-07-30T14:03:05;4.63;;;1.50;;
13404;SDS011;6773;51.192;7.024;2023-07-30T14:05:31;4.88;;;1.60;;
13404;SDS011;6773;51.192;7.024;2023-07-30T14:07:57;4.05;;;1.77;;
13404;SDS011;6773;51.192;7.024;2023-07-30T14:10:23;6.68;;;1.75;;
13404;SDS011;6773;51.192;7.024;2023-07-30T14:12:49;2.60;;;1.40;;
13404;SDS011;6773;51.192;7.024;2023-07-30T14:15:15;7.03;;;1.65;;
13404;SDS011;6773;51.192;7.024;2023-07-30T14:17:41;4.43;;;1.60;;
13404;SDS011;6773;51.192;7.024;2023-07-30T14:20:07;3.75;;;1.70;;
13404;SDS011;6773;51.192;7.024;2023-07-30T14:22:34;3.05;;;1.30;;
13404;SDS011;6773;51.192;7.024;2023-07-30T14:25:00;7.45;;;1.80;;
13404;SDS011;6773;51.192;7.024;2023-07-30T14:27:26;2.75;;;1.48;;
13404;SDS011;6773;51.192;7.024;2023-07-30T14:29:52;4.60;;;1.50;;
13404;SDS011;6773;51.192;7.024;2023-07-30T14:32:21;2.95;;;1.40;;
13404;SDS011;6773;51.192;7.024;2023-07-30T14:34:47;3.92;;;1.58;;
13404;SDS011;6773;51.192;7.024;2023-07-30T14:37:13;4.97;;;1.63;;
13404;SDS011;6773;51.192;7.024;2023-07-30T14:39:39;4.80;;;1.67;;
13404;SDS011;6773;51.192;7.024;2023-07-30T14:42:06;4.18;;;1.58;;
13404;SDS011;6773;51.192;7.024;2023-07-30T14:44:32;2.58;;;1.45;;
13404;SDS011;6773;51.192;7.024;2023-07-30T14:46:58;3.80;;;1.88;;
13404;SDS011;6773;51.192;7.024;2023-07-30T14:49:24;7.38;;;1.75;;
13404;SDS011;6773;51.192;7.024;2023-07-30T14:51:50;3.22;;;1.75;;
13404;SDS011;6773;51.192;7.024;2023-07-30T14:54:16;4.07;;;1.48;;
13404;SDS011;6773;51.192;7.024;2023-07-30T14:56:42;4.07;;;1.52;;
13404;SDS011;6773;51.192;7.024;2023-07-30T14:59:09;2.85;;;1.20;;
13404;SDS011;6773;51.192;7.024;2023-07-30T15:01:35;4.47;;;1.60;;